Time;durP1;ratioP1;P1;durP2;ratioP2;P2;SDS_P1;SDS_P2;PMS_P1;PMS_P2;Temp;Humidity;BMP_temperature;BMP_pressure;BME280_temperature;BME280_humidity;BME280_pressure;Samples;Min_cycle;Max_cycle;Signal;HPM_P1;HPM_P2
2023/07/03 00:01:07;;;;;;;13.35;4.80;;;;;;;15.52;64.52;100732.91;4988327;28;20053;-79
2023/07/03 00:03:33;;;;;;;11.88;5.22;;;;;;;15.39;64.79;100733.09;4986721;28;20091;-80
2023/07/03 00:05:58;;;;;;;13.32;4.65;;;;;;;15.46;64.13;100726.50;4983363;28;20408;-80
2023/07/03 00:08:23;;;;;;;16.80;4.90;;;;;;;15.53;63.65;100736.44;4988700;28;20031;-79
2023/07/03 00:10:55;;;;;;;17.23;5.28;;;;;;;15.49;63.55;100732.53;4987541;28;20080;-80
2023/07/03 00:13:21;;;;;;;17.13;4.90;;;;;;;15.53;63.07;100731.81;4969358;28;20050;-80
2023/07/03 00:15:46;;;;;;;13.93;4.63;;;;;;;15.49;63.33;100722.50;4980601;28;20029;-80
2023/07/03 00:18:12;;;;;;;13.05;4.32;;;;;;;15.43;63.15;100720.72;4986333;28;20453;-80
2023/07/03 00:20:39;;;;;;;15.85;4.68;;;;;;;15.41;63.31;100726.41;4979347;28;20467;-79
2023/07/03 00:23:04;;;;;;;10.05;4.25;;;;;;;15.38;62.73;100720.59;4987914;28;20061;-80
2023/07/03 00:25:30;;;;;;;15.18;5.30;;;;;;;15.36;62.42;100709.13;4986011;28;20031;-79
2023/07/03 00:27:55;;;;;;;13.23;4.35;;;;;;;15.29;62.57;100712.78;4985557;28;20124;-80
2023/07/03 00:30:20;;;;;;;13.75;4.85;;;;;;;15.34;62.10;100716.72;4981198;28;20125;-80
2023/07/03 00:32:46;;;;;;;14.02;5.05;;;;;;;15.25;62.09;100730.59;4988484;28;20037;-80
2023/07/03 00:35:11;;;;;;;11.63;4.47;;;;;;;15.16;62.42;100729.28;4988192;28;20045;-80
2023/07/03 00:37:37;;;;;;;9.82;4.38;;;;;;;15.08;62.19;100730.44;4986890;28;20485;-79
2023/07/03 00:40:03;;;;;;;12.93;4.82;;;;;;;15.06;62.25;100721.69;4988542;28;20393;-80
2023/07/03 00:42:28;;;;;;;13.73;4.30;;;;;;;15.08;61.76;100724.16;4987336;28;20494;-79
2023/07/03 00:44:54;;;;;;;11.93;4.32;;;;;;;15.12;61.39;100719.94;4986178;28;20030;-80
2023/07/03 00:47:19;;;;;;;12.85;4.38;;;;;;;15.04;61.67;100720.25;4987243;28;20491;-79
2023/07/03 00:49:44;;;;;;;13.77;4.25;;;;;;;15.10;61.31;100719.34;4987946;28;20030;-80
2023/07/03 00:52:10;;;;;;;13.77;4.80;;;;;;;15.10;61.34;100722.03;4985002;28;20041;-80
2023/07/03 00:54:36;;;;;;;12.73;4.70;;;;;;;15.08;61.34;100716.03;4987276;28;20043;-79
2023/07/03 00:57:02;;;;;;;15.18;4.20;;;;;;;15.10;60.95;100722.03;5054032;28;20104;-80
2023/07/03 00:59:27;;;;;;;12.05;4.22;;;;;;;14.99;61.14;100715.53;4985781;28;20524;-80
2023/07/03 01:02:10;;;;;;;17.08;4.57;;;;;;;14.98;61.27;100703.88;4985277;28;20053;-80
2023/07/03 01:05:05;;;;;;;11.98;4.47;;;;;;;14.91;61.46;100713.97;4968243;28;20382;-79
2023/07/03 01:07:31;;;;;;;13.82;4.03;;;;;;;14.83;61.72;100706.13;4970495;28;20030;-80
2023/07/03 01:10:03;;;;;;;10.23;4.22;;;;;;;14.90;61.49;100712.31;4968370;28;20083;-80
2023/07/03 01:12:29;;;;;;;12.38;4.47;;;;;;;14.96;61.22;100705.97;4970328;28;20022;-79
2023/07/03 01:14:58;;;;;;;13.95;4.45;;;;;;;14.96;60.98;100711.41;4967227;28;20673;-80
2023/07/03 01:17:24;;;;;;;13.00;4.53;;;;;;;14.87;61.22;100693.78;4960298;23;20106;-80
2023/07/03 01:19:49;;;;;;;11.48;4.35;;;;;;;14.92;61.12;100707.50;5028448;28;20535;-80
2023/07/03 01:22:27;;;;;;;12.65;4.50;;;;;;;14.74;61.75;100704.81;5038859;28;20036;-80
2023/07/03 01:25:00;;;;;;;13.63;3.90;;;;;;;14.73;61.65;100706.72;5024511;28;20022;-79
2023/07/03 01:27:30;;;;;;;15.15;3.92;;;;;;;14.79;61.56;100705.78;4984659;28;20115;-79
2023/07/03 01:29:56;;;;;;;12.45;3.85;;;;;;;14.80;61.35;100702.00;5035484;28;20521;-79
2023/07/03 01:32:22;;;;;;;10.80;4.15;;;;;;;14.81;61.29;100700.97;5066227;28;20020;-79
2023/07/03 01:34:48;;;;;;;11.73;3.50;;;;;;;14.79;61.42;100691.41;5001903;28;20470;-79
2023/07/03 01:37:13;;;;;;;16.83;4.55;;;;;;;14.77;61.10;100686.19;5052961;28;20039;-81
2023/07/03 01:39:41;;;;;;;12.57;3.92;;;;;;;14.75;61.36;100701.03;5038508;28;20038;-79
2023/07/03 01:42:06;;;;;;;11.93;3.88;;;;;;;14.71;61.40;100697.97;5028217;28;20036;-79
2023/07/03 01:44:32;;;;;;;12.20;4.25;;;;;;;14.70;61.48;100697.13;5011685;28;20107;-79
2023/07/03 01:47:06;;;;;;;12.25;4.00;;;;;;;14.63;61.90;100698.25;5011558;28;20036;-79
2023/07/03 01:49:31;;;;;;;16.60;4.05;;;;;;;14.64;61.77;100702.59;5063890;28;20040;-79
2023/07/03 01:52:17;;;;;;;15.05;4.13;;;;;;;14.64;61.89;100691.78;5041853;28;20078;-80
2023/07/03 01:54:45;;;;;;;14.95;3.92;;;;;;;14.70;61.68;100689.00;4993058;28;20070;-80
2023/07/03 01:57:11;;;;;;;9.35;3.88;;;;;;;14.55;62.12;100689.41;5049681;28;20044;-80
2023/07/03 01:59:36;;;;;;;11.30;3.45;;;;;;;14.62;61.61;100688.47;5038600;28;20057;-80
2023/07/03 02:02:07;;;;;;;16.67;4.32;;;;;;;14.60;61.80;100686.00;4997406;28;20022;-79
2023/07/03 02:04:38;;;;;;;18.15;4.30;;;;;;;14.47;62.14;100688.88;4989652;28;20524;-80
2023/07/03 02:07:03;;;;;;;16.98;4.28;;;;;;;14.44;62.25;100695.56;4960589;28;20043;-79
2023/07/03 02:09:29;;;;;;;9.80;3.65;;;;;;;14.47;62.49;100695.09;5013853;28;20024;-79
2023/07/03 02:11:55;;;;;;;15.73;4.10;;;;;;;14.37;62.38;100684.00;5052281;28;20044;-79
2023/07/03 02:14:20;;;;;;;15.07;3.65;;;;;;;14.36;62.81;100690.47;5023734;28;20040;-79
2023/07/03 02:16:47;;;;;;;11.60;3.63;;;;;;;14.34;62.98;100684.44;5031220;28;20031;-79
2023/07/03 02:19:15;;;;;;;10.85;3.55;;;;;;;14.38;62.68;100689.16;5085432;28;20047;-80
2023/07/03 02:21:44;;;;;;;11.80;4.10;;;;;;;14.32;62.78;100694.66;5031060;28;20036;-79
2023/07/03 02:24:11;;;;;;;11.50;3.88;;;;;;;14.28;63.20;100688.03;5089411;28;20031;-81
2023/07/03 02:26:37;;;;;;;9.60;3.85;;;;;;;14.22;63.25;100684.34;5033474;28;20509;-81
2023/07/03 02:29:02;;;;;;;12.98;3.97;;;;;;;14.14;63.22;100681.94;5079001;28;20024;-81
2023/07/03 02:31:28;;;;;;;11.27;3.72;;;;;;;14.09;63.52;100678.03;5067669;28;20468;-81
2023/07/03 02:33:53;;;;;;;15.20;3.78;;;;;;;13.98;64.00;100678.75;5077571;28;20111;-81
2023/07/03 02:36:19;;;;;;;11.45;4.00;;;;;;;13.94;64.13;100677.59;5045796;28;20405;-79
2023/07/03 02:38:44;;;;;;;12.82;3.80;;;;;;;13.90;64.63;100657.44;5038866;28;20389;-80
2023/07/03 02:41:10;;;;;;;10.05;3.67;;;;;;;13.88;64.42;100662.22;5068961;28;20028;-78
2023/07/03 02:43:35;;;;;;;11.73;4.10;;;;;;;13.60;65.38;100663.50;5077923;28;20061;-79
2023/07/03 02:46:04;;;;;;;16.33;4.05;;;;;;;13.67;65.32;100666.19;5013093;28;20389;-80
2023/07/03 02:48:30;;;;;;;11.30;3.88;;;;;;;13.65;65.44;100663.69;5036753;28;20042;-79
2023/07/03 02:50:55;;;;;;;13.30;4.15;;;;;;;13.69;65.25;100653.25;5067784;28;20103;-80
2023/07/03 02:53:20;;;;;;;12.52;4.00;;;;;;;13.62;65.62;100654.16;5080520;28;20032;-80
2023/07/03 02:55:50;;;;;;;12.50;3.72;;;;;;;13.73;65.59;100649.88;5047228;28;20475;-80
2023/07/03 02:58:17;;;;;;;11.52;3.67;;;;;;;13.71;65.32;100635.75;5022022;28;20067;-80
2023/07/03 03:00:42;;;;;;;17.45;3.70;;;;;;;13.73;65.44;100633.66;5010121;28;20021;-80
2023/07/03 03:03:07;;;;;;;11.43;3.53;;;;;;;13.76;65.61;100644.03;5079892;28;20027;-80
2023/07/03 03:05:33;;;;;;;13.15;3.95;;;;;;;13.80;65.83;100634.41;5036561;28;20417;-80
2023/07/03 03:07:58;;;;;;;13.80;3.75;;;;;;;13.76;65.97;100644.03;5057492;28;20390;-80
2023/07/03 03:10:24;;;;;;;13.30;3.92;;;;;;;13.80;65.91;100645.22;5088387;28;20028;-80
2023/07/03 03:12:49;;;;;;;12.18;3.85;;;;;;;13.74;66.04;100646.13;5023694;28;20113;-79
2023/07/03 03:15:17;;;;;;;14.05;4.47;;;;;;;13.74;66.19;100654.25;5031565;28;20037;-79
2023/07/03 03:17:43;;;;;;;15.50;4.25;;;;;;;13.77;66.25;100658.38;5005690;28;20049;-80
2023/07/03 03:20:10;;;;;;;15.05;3.92;;;;;;;13.70;66.87;100658.44;5043013;28;20089;-80
2023/07/03 03:22:35;;;;;;;17.30;4.20;;;;;;;13.68;66.82;100655.13;5031251;28;20467;-80
2023/07/03 03:25:00;;;;;;;18.67;4.22;;;;;;;13.74;66.83;100664.22;5057032;28;20172;-80
2023/07/03 03:27:26;;;;;;;12.38;3.60;;;;;;;13.72;66.91;100659.06;5039867;28;20030;-80
2023/07/03 03:29:51;;;;;;;11.75;3.67;;;;;;;13.74;67.20;100665.06;5028852;28;20115;-80
2023/07/03 03:32:17;;;;;;;14.38;3.80;;;;;;;13.80;67.12;100672.28;5036156;28;20028;-80
2023/07/03 03:34:43;;;;;;;15.40;3.45;;;;;;;13.87;66.86;100666.78;5049324;28;20517;-80
2023/07/03 03:37:08;;;;;;;15.55;4.30;;;;;;;13.92;66.97;100668.84;5048596;28;20032;-80
2023/07/03 03:39:33;;;;;;;18.27;4.05;;;;;;;13.77;67.36;100669.19;4999272;28;20480;-80
2023/07/03 03:41:59;;;;;;;15.23;3.65;;;;;;;13.91;67.08;100668.00;5026979;28;20118;-80
2023/07/03 03:44:24;;;;;;;16.33;4.10;;;;;;;13.94;66.72;100666.75;4992185;28;20027;-80
2023/07/03 03:46:53;;;;;;;15.77;3.83;;;;;;;13.99;66.98;100676.91;4991685;28;20437;-80
2023/07/03 03:49:21;;;;;;;13.20;4.18;;;;;;;13.95;67.40;100671.09;5049866;28;20119;-80
2023/07/03 03:51:47;;;;;;;14.57;3.85;;;;;;;13.88;67.65;100673.06;5048739;28;20031;-81
2023/07/03 03:54:12;;;;;;;14.75;3.63;;;;;;;13.93;67.52;100675.94;5059210;28;20032;-79
2023/07/03 03:56:38;;;;;;;19.20;4.25;;;;;;;13.95;67.74;100676.50;5040588;23;20038;-79
2023/07/03 03:59:03;;;;;;;16.45;3.80;;;;;;;13.94;68.04;100674.88;5093710;28;20605;-79
2023/07/03 04:01:29;;;;;;;13.95;3.78;;;;;;;13.93;68.06;100670.50;5089172;28;20059;-80
2023/07/03 04:03:55;;;;;;;15.98;3.72;;;;;;;14.00;67.70;100670.44;5090418;28;20032;-79
2023/07/03 04:06:20;;;;;;;15.02;4.25;;;;;;;13.99;68.41;100664.19;5091125;28;20387;-79
2023/07/03 04:08:46;;;;;;;15.35;4.10;;;;;;;13.97;68.33;100677.09;5088324;28;20036;-78
2023/07/03 04:11:12;;;;;;;16.52;4.35;;;;;;;13.84;69.16;100671.84;5089968;28;20115;-79
2023/07/03 04:13:37;;;;;;;17.00;4.10;;;;;;;13.92;69.01;100685.91;5089680;28;20032;-79
2023/07/03 04:16:06;;;;;;;16.30;4.25;;;;;;;13.95;69.03;100674.63;5090071;28;20525;-79
2023/07/03 04:18:31;;;;;;;16.45;4.20;;;;;;;13.97;69.62;100676.28;5079835;28;21312;-79
2023/07/03 04:20:57;;;;;;;16.77;4.55;;;;;;;13.95;69.89;100679.22;5090515;28;20518;-79
2023/07/03 04:23:23;;;;;;;24.05;4.70;;;;;;;13.99;69.59;100683.13;5089799;28;20043;-77
2023/07/03 04:25:48;;;;;;;19.75;4.85;;;;;;;14.05;69.51;100673.28;5089683;28;20020;-78
2023/07/03 04:28:15;;;;;;;18.23;4.50;;;;;;;14.13;69.73;100685.69;5090311;28;20028;-78
2023/07/03 04:30:41;;;;;;;22.65;4.43;;;;;;;14.05;70.25;100674.13;5090667;28;20043;-79
2023/07/03 04:33:06;;;;;;;15.40;5.15;;;;;;;13.97;70.77;100690.66;5092817;28;20418;-78
2023/07/03 04:35:31;;;;;;;20.40;4.85;;;;;;;14.09;70.70;100678.03;5090184;28;20028;-78
2023/07/03 04:37:57;;;;;;;23.45;5.50;;;;;;;14.17;70.21;100684.19;5072714;28;20409;-78
2023/07/03 04:40:22;;;;;;;15.75;5.45;;;;;;;14.09;70.73;100686.16;5088338;28;20039;-77
2023/07/03 04:42:48;;;;;;;17.65;4.65;;;;;;;14.09;70.87;100690.72;5088211;28;20028;-77
2023/07/03 04:45:15;;;;;;;16.98;4.32;;;;;;;14.10;71.07;100681.56;5089870;28;20034;-78
2023/07/03 04:47:41;;;;;;;18.08;4.65;;;;;;;14.21;70.90;100693.53;5088428;28;20039;-78
2023/07/03 04:50:08;;;;;;;19.88;5.18;;;;;;;14.19;70.46;100688.34;5083078;28;20024;-77
2023/07/03 04:52:36;;;;;;;18.27;4.45;;;;;;;14.36;70.11;100691.28;5090892;28;20418;-78
2023/07/03 04:55:02;;;;;;;16.08;4.80;;;;;;;14.48;70.03;100687.78;5086945;28;20020;-78
2023/07/03 04:57:27;;;;;;;15.60;4.60;;;;;;;14.56;69.74;100698.34;5088538;28;20040;-78
2023/07/03 04:59:54;;;;;;;19.55;4.70;;;;;;;14.38;70.22;100697.28;5089820;28;20031;-78
2023/07/03 05:02:21;;;;;;;20.20;5.38;;;;;;;14.34;70.55;100697.97;5090339;28;20031;-78
2023/07/03 05:04:46;;;;;;;21.33;5.20;;;;;;;14.45;70.16;100702.63;5088328;28;20051;-78
2023/07/03 05:07:14;;;;;;;22.92;5.00;;;;;;;14.36;70.58;100704.81;5089120;28;20640;-78
2023/07/03 05:09:40;;;;;;;17.10;4.50;;;;;;;14.37;70.40;100706.47;5086524;28;20028;-78
2023/07/03 05:12:05;;;;;;;17.90;4.65;;;;;;;14.49;70.51;100708.41;5088492;28;20098;-78
2023/07/03 05:14:31;;;;;;;15.02;4.80;;;;;;;14.48;70.41;100701.34;5088992;28;20123;-78
2023/07/03 05:16:56;;;;;;;19.63;5.00;;;;;;;14.56;70.45;100714.59;5087098;28;20016;-78
2023/07/03 05:19:22;;;;;;;19.50;4.72;;;;;;;14.68;69.94;100707.38;5086478;28;20032;-79
2023/07/03 05:21:47;;;;;;;22.08;5.15;;;;;;;14.66;70.09;100712.16;5083195;28;20024;-79
2023/07/03 05:24:16;;;;;;;18.55;5.03;;;;;;;14.84;69.73;100713.22;5086092;28;20047;-79
2023/07/03 05:26:41;;;;;;;23.23;4.85;;;;;;;14.91;69.37;100713.97;5086773;28;20032;-79
2023/07/03 05:29:06;;;;;;;16.40;4.38;;;;;;;14.91;69.44;100713.16;5097837;28;20054;-78
2023/07/03 05:31:32;;;;;;;20.65;4.90;;;;;;;14.81;69.59;100713.69;5094302;28;20023;-78
2023/07/03 05:34:00;;;;;;;23.67;5.05;;;;;;;15.00;69.28;100723.41;5101589;28;20032;-78
2023/07/03 05:36:30;;;;;;;21.08;5.00;;;;;;;15.31;68.31;100721.53;5095207;28;20085;-78
2023/07/03 05:38:55;;;;;;;20.23;5.40;;;;;;;15.82;66.65;100728.44;5096369;28;20028;-79
2023/07/03 05:41:20;;;;;;;19.60;5.13;;;;;;;16.35;65.57;100732.13;5090595;28;20107;-79
2023/07/03 05:43:46;;;;;;;19.67;4.90;;;;;;;17.42;62.14;100740.75;5095809;28;20085;-79
2023/07/03 05:46:11;;;;;;;18.83;4.45;;;;;;;18.27;58.95;100734.44;5094576;28;20526;-79
2023/07/03 05:48:37;;;;;;;20.95;4.97;;;;;;;18.55;57.02;100726.34;5094986;28;20035;-79
2023/07/03 05:51:02;;;;;;;18.20;4.72;;;;;;;17.27;60.86;100737.75;5094818;28;20527;-78
2023/07/03 05:53:27;;;;;;;21.40;4.80;;;;;;;16.43;63.50;100734.44;5086649;28;20028;-78
2023/07/03 05:55:54;;;;;;;18.60;4.70;;;;;;;16.19;64.93;100734.50;5091071;28;20082;-79
2023/07/03 05:58:19;;;;;;;19.45;4.88;;;;;;;15.27;68.05;100739.31;5094724;28;20051;-80
2023/07/03 06:00:47;;;;;;;20.90;5.65;;;;;;;15.12;68.81;100755.19;5096195;28;20320;-79
2023/07/03 06:03:12;;;;;;;26.52;6.13;;;;;;;15.06;69.35;100737.13;5094145;28;20028;-78
2023/07/03 06:05:37;;;;;;;15.75;4.00;;;;;;;15.09;69.53;100740.19;5095076;28;20039;-78
2023/07/03 06:08:03;;;;;;;20.90;4.88;;;;;;;15.57;68.44;100740.34;5094388;28;20031;-82
2023/07/03 06:10:29;;;;;;;25.60;5.15;;;;;;;15.59;68.00;100752.59;5093386;28;20380;-86
2023/07/03 06:12:54;;;;;;;23.05;5.15;;;;;;;15.82;67.70;100761.84;5093927;28;20223;-85
2023/07/03 06:15:20;;;;;;;18.98;5.30;;;;;;;15.64;68.01;100753.78;5096577;28;20475;-80
2023/07/03 06:17:48;;;;;;;22.42;5.63;;;;;;;15.86;66.79;100744.06;5086243;28;20046;-82
2023/07/03 06:20:13;;;;;;;19.95;4.75;;;;;;;15.60;68.31;100737.97;5095994;28;20020;-79
2023/07/03 06:22:40;;;;;;;19.75;5.00;;;;;;;15.41;68.47;100755.38;5093211;28;20104;-79
2023/07/03 06:25:09;;;;;;;21.48;4.90;;;;;;;15.58;68.14;100744.72;5094996;28;20394;-79
2023/07/03 06:27:34;;;;;;;16.45;4.75;;;;;;;15.43;68.73;100739.72;5096758;28;20460;-79
2023/07/03 06:29:59;;;;;;;19.20;5.60;;;;;;;15.38;68.61;100745.00;5091363;28;20023;-80
2023/07/03 06:32:25;;;;;;;23.38;4.75;;;;;;;15.25;69.09;100751.47;5094704;28;20396;-80
2023/07/03 06:34:50;;;;;;;22.50;4.68;;;;;;;15.56;68.53;100750.34;5093149;28;20031;-80
2023/07/03 06:37:16;;;;;;;16.83;5.22;;;;;;;15.79;68.26;100754.16;5097375;28;20222;-80
2023/07/03 06:39:41;;;;;;;19.52;5.13;;;;;;;15.71;67.57;100754.50;5093064;28;20154;-80
2023/07/03 06:42:07;;;;;;;19.27;5.20;;;;;;;15.68;67.40;100760.41;5089308;28;20024;-79
2023/07/03 06:44:32;;;;;;;16.75;4.93;;;;;;;15.99;66.93;100764.72;5088064;28;20529;-81
2023/07/03 06:46:57;;;;;;;16.05;4.60;;;;;;;16.10;66.05;100768.50;5089407;28;20031;-79
2023/07/03 06:49:24;;;;;;;22.42;4.97;;;;;;;16.18;65.63;100765.44;5095164;28;20467;-80
2023/07/03 06:51:53;;;;;;;17.30;4.78;;;;;;;16.74;64.35;100759.56;5093388;28;20028;-79
2023/07/03 06:54:18;;;;;;;19.23;4.55;;;;;;;16.77;62.90;100766.41;5083072;28;20017;-80
2023/07/03 06:56:44;;;;;;;17.92;4.30;;;;;;;17.22;62.26;100767.59;5090125;28;20035;-80
2023/07/03 06:59:09;;;;;;;16.15;4.57;;;;;;;17.55;60.88;100755.94;5091597;28;20024;-80
2023/07/03 07:01:34;;;;;;;14.77;4.53;;;;;;;17.90;59.21;100756.75;5089615;28;20012;-80
2023/07/03 07:04:00;;;;;;;18.13;4.57;;;;;;;17.82;59.23;100760.72;5090741;28;20088;-81
2023/07/03 07:06:28;;;;;;;16.35;4.40;;;;;;;17.98;59.65;100764.56;5088985;28;20024;-79
2023/07/03 07:08:53;;;;;;;17.80;4.57;;;;;;;18.19;57.47;100764.84;5088362;28;20053;-80
2023/07/03 07:11:40;;;;;;;17.70;4.93;;;;;;;18.37;56.93;100771.91;5088973;28;20107;-79
2023/07/03 07:14:09;;;;;;;17.05;4.70;;;;;;;18.26;57.58;100775.59;5072732;28;20522;-78
2023/07/03 07:16:35;;;;;;;16.88;4.70;;;;;;;17.91;58.44;100780.19;5084655;28;20016;-79
2023/07/03 07:19:03;;;;;;;19.30;4.47;;;;;;;17.56;59.39;100778.53;5089712;28;20416;-78
2023/07/03 07:21:32;;;;;;;16.30;4.15;;;;;;;17.67;59.50;100763.19;5091573;28;20020;-80
2023/07/03 07:24:03;;;;;;;17.08;4.35;;;;;;;17.81;59.31;100769.16;5090620;28;20028;-79
2023/07/03 07:26:32;;;;;;;15.60;4.15;;;;;;;18.41;57.81;100772.22;5089460;28;20116;-77
2023/07/03 07:28:58;;;;;;;14.60;4.18;;;;;;;18.86;56.45;100776.63;5084990;28;20448;-88
2023/07/03 07:31:25;;;;;;;17.48;4.47;;;;;;;18.49;56.83;100777.25;5090911;28;20554;-78
2023/07/03 07:33:50;;;;;;;17.70;4.05;;;;;;;18.97;55.99;100780.34;5089330;28;20150;-77
2023/07/03 07:36:16;;;;;;;17.50;4.03;;;;;;;18.67;55.96;100781.56;5088579;28;20387;-78
2023/07/03 07:38:42;;;;;;;15.25;4.20;;;;;;;18.41;57.15;100788.59;5085484;28;20111;-76
2023/07/03 07:41:08;;;;;;;16.27;4.43;;;;;;;17.99;58.16;100790.72;5087486;28;20028;-76
2023/07/03 07:43:33;;;;;;;18.25;4.38;;;;;;;17.87;59.19;100790.75;5085476;28;20024;-76
2023/07/03 07:45:58;;;;;;;19.17;4.15;;;;;;;17.86;59.15;100788.28;5083877;28;20031;-79
2023/07/03 07:48:26;;;;;;;17.73;4.30;;;;;;;18.56;57.55;100786.06;5087235;28;20020;-80
2023/07/03 07:50:51;;;;;;;18.75;4.18;;;;;;;19.53;55.23;100782.81;5087289;28;20522;-78
2023/07/03 07:53:20;;;;;;;13.75;4.28;;;;;;;19.83;52.51;100792.34;5087298;28;20024;-83
2023/07/03 07:55:45;;;;;;;14.32;4.05;;;;;;;20.01;52.62;100787.59;5085705;28;20162;-76
2023/07/03 07:58:11;;;;;;;12.60;4.35;;;;;;;19.22;54.42;100790.72;5088023;28;20036;-79
2023/07/03 08:00:36;;;;;;;15.70;3.75;;;;;;;18.60;55.50;100800.03;5086816;28;20072;-76
2023/07/03 08:03:02;;;;;;;15.60;4.18;;;;;;;18.39;56.61;100801.63;5087285;28;20031;-76
2023/07/03 08:05:27;;;;;;;16.73;4.40;;;;;;;17.28;59.39;100800.06;5088970;28;20483;-76
2023/07/03 08:07:53;;;;;;;18.17;4.13;;;;;;;17.25;60.54;100805.19;5087588;28;20066;-75
2023/07/03 08:10:19;;;;;;;13.95;4.00;;;;;;;17.38;60.13;100813.03;5089951;28;20026;-75
2023/07/03 08:12:44;;;;;;;14.30;3.97;;;;;;;17.33;59.33;100812.13;5086564;28;20046;-76
2023/07/03 08:15:10;;;;;;;16.00;3.67;;;;;;;17.39;59.68;100813.88;5086027;28;20024;-77
2023/07/03 08:17:35;;;;;;;11.48;3.75;;;;;;;17.56;59.53;100816.63;5086575;28;20032;-76
2023/07/03 08:20:01;;;;;;;17.92;4.03;;;;;;;17.78;59.03;100816.75;5089757;28;20031;-76
2023/07/03 08:22:27;;;;;;;15.48;4.03;;;;;;;17.53;59.99;100814.41;5087906;28;20032;-76
2023/07/03 08:24:52;;;;;;;16.85;4.13;;;;;;;17.70;60.12;100801.63;5088986;28;20043;-76
2023/07/03 08:27:18;;;;;;;22.70;4.95;;;;;;;17.58;58.80;100812.59;5089812;28;20785;-76
2023/07/03 08:29:45;;;;;;;12.88;3.90;;;;;;;17.69;58.43;100815.50;5088960;28;20035;-76
2023/07/03 08:32:11;;;;;;;16.40;4.35;;;;;;;17.58;58.44;100812.59;5088229;28;20034;-75
2023/07/03 08:34:36;;;;;;;14.35;3.92;;;;;;;17.60;58.42;100825.97;5090620;28;20039;-77
2023/07/03 08:37:02;;;;;;;17.08;4.72;;;;;;;17.47;58.77;100829.00;5090025;28;20040;-78
2023/07/03 08:39:28;;;;;;;16.27;4.10;;;;;;;17.39;58.96;100825.59;5087805;28;20115;-76
2023/07/03 08:42:00;;;;;;;13.52;4.28;;;;;;;17.24;58.96;100830.75;5088729;28;20024;-76
2023/07/03 08:44:25;;;;;;;14.07;3.80;;;;;;;17.35;59.50;100827.13;5070888;28;20040;-75
2023/07/03 08:46:51;;;;;;;14.23;3.58;;;;;;;17.54;58.16;100840.53;5087699;28;20046;-75
2023/07/03 08:49:16;;;;;;;13.55;3.92;;;;;;;17.55;58.03;100843.03;5070143;28;20029;-75
2023/07/03 08:51:42;;;;;;;13.50;3.85;;;;;;;17.55;58.75;100826.72;5051686;28;20387;-76
2023/07/03 08:54:22;;;;;;;11.98;3.58;;;;;;;17.81;57.50;100823.59;5068266;28;20554;-75
2023/07/03 08:56:48;;;;;;;13.38;3.72;;;;;;;17.91;57.64;100831.94;5051084;28;20267;-76
2023/07/03 08:59:13;;;;;;;14.20;4.07;;;;;;;17.89;57.29;100831.34;5085152;28;20110;-77
2023/07/03 09:01:42;;;;;;;13.68;4.03;;;;;;;18.06;57.51;100831.41;5071003;28;20099;-76
2023/07/03 09:04:18;;;;;;;11.27;3.72;;;;;;;18.87;55.09;100837.47;5087344;28;20028;-76
2023/07/03 09:07:02;;;;;;;14.68;3.45;;;;;;;19.23;54.78;100838.75;5062704;28;20036;-77
2023/07/03 09:09:29;;;;;;;12.10;3.70;;;;;;;20.78;50.65;100838.41;5068275;28;20073;-77
2023/07/03 09:12:00;;;;;;;13.10;3.95;;;;;;;22.31;47.74;100835.41;5072275;28;20459;-77
2023/07/03 09:14:27;;;;;;;12.30;4.00;;;;;;;22.71;47.42;100833.69;5090821;28;20032;-77
2023/07/03 09:16:52;;;;;;;15.60;4.32;;;;;;;21.59;47.06;100819.78;5069272;28;20070;-77
2023/07/03 09:19:23;;;;;;;12.57;3.88;;;;;;;22.44;44.02;100823.06;5074763;28;20023;-77
2023/07/03 09:21:53;;;;;;;13.63;4.13;;;;;;;22.37;46.14;100817.84;5062746;28;20020;-77
2023/07/03 09:24:25;;;;;;;15.02;4.30;;;;;;;21.87;47.69;100820.34;5053694;28;20077;-78
2023/07/03 09:26:58;;;;;;;14.35;4.20;;;;;;;23.56;43.32;100815.41;5087970;28;20028;-76
2023/07/03 09:29:24;;;;;;;14.23;4.40;;;;;;;24.21;41.13;100814.38;5086273;28;20032;-76
2023/07/03 09:31:49;;;;;;;9.38;2.97;;;;;;;22.97;40.71;100811.63;5049562;28;20046;-77
2023/07/03 09:34:16;;;;;;;9.77;3.13;;;;;;;22.33;41.97;100811.28;5076155;28;20511;-79
2023/07/03 09:36:43;;;;;;;9.35;3.00;;;;;;;22.06;42.43;100815.97;5087698;28;20044;-79
2023/07/03 09:39:17;;;;;;;8.48;2.85;;;;;;;22.97;40.92;100817.94;5087124;28;20526;-79
2023/07/03 09:41:43;;;;;;;6.88;2.67;;;;;;;23.75;40.63;100822.97;5086117;28;20039;-79
2023/07/03 09:44:17;;;;;;;10.23;3.03;;;;;;;23.15;40.60;100821.97;5087325;28;20395;-80
2023/07/03 09:46:43;;;;;;;8.25;3.03;;;;;;;23.16;40.25;100814.56;5083769;28;20044;-81
2023/07/03 09:49:16;;;;;;;11.13;3.50;;;;;;;21.59;42.71;100815.09;5052630;28;20113;-81
2023/07/03 09:51:41;;;;;;;11.80;3.60;;;;;;;20.88;44.49;100824.78;5050699;28;20361;-79
2023/07/03 09:54:16;;;;;;;9.15;2.70;;;;;;;21.88;42.55;100817.38;5084479;28;20031;-79
2023/07/03 09:56:41;;;;;;;13.63;3.22;;;;;;;21.51;43.38;100829.34;5087511;28;20169;-79
2023/07/03 09:59:09;;;;;;;7.90;3.10;;;;;;;22.11;42.01;100820.63;5087420;28;20173;-78
2023/07/03 10:01:37;;;;;;;8.25;3.22;;;;;;;22.83;39.51;100812.25;5083615;28;20056;-80
2023/07/03 10:04:19;;;;;;;9.02;2.67;;;;;;;21.39;39.25;100826.84;5079627;28;20020;-79
2023/07/03 10:07:04;;;;;;;9.32;2.63;;;;;;;20.93;40.70;100827.53;5086458;28;20032;-79
2023/07/03 10:09:34;;;;;;;8.15;2.47;;;;;;;21.45;39.40;100835.91;5085100;28;20021;-80
2023/07/03 10:12:11;;;;;;;6.00;2.40;;;;;;;21.95;37.87;100833.53;5070523;28;20039;-79
2023/07/03 10:14:56;;;;;;;6.47;2.63;;;;;;;20.54;39.39;100825.97;5085063;28;20034;-81
2023/07/03 10:17:33;;;;;;;6.55;2.25;;;;;;;20.36;40.31;100831.84;5075573;28;20029;-81
2023/07/03 10:20:04;;;;;;;7.25;2.63;;;;;;;19.95;40.66;100833.19;5071988;28;20032;-81
2023/07/03 10:22:31;;;;;;;7.53;2.20;;;;;;;19.93;40.32;100835.34;5070882;28;20041;-81
2023/07/03 10:25:00;;;;;;;6.90;2.60;;;;;;;20.35;40.92;100847.44;5058993;28;20028;-81
2023/07/03 10:27:25;;;;;;;7.68;2.65;;;;;;;20.46;41.08;100840.13;5060820;28;20039;-80
2023/07/03 10:29:53;;;;;;;7.40;2.97;;;;;;;21.40;39.52;100844.09;5064062;28;20035;-80
2023/07/03 10:32:19;;;;;;;8.65;2.72;;;;;;;21.51;40.50;100846.59;5059841;28;20029;-80
2023/07/03 10:34:47;;;;;;;7.70;2.78;;;;;;;21.91;40.43;100841.44;5077874;28;20100;-79
2023/07/03 10:37:13;;;;;;;9.60;2.95;;;;;;;21.64;41.52;100845.28;5066902;28;20098;-78
2023/07/03 10:39:57;;;;;;;8.82;2.83;;;;;;;22.09;39.13;100842.84;5080511;28;20028;-78
2023/07/03 10:42:42;;;;;;;7.00;2.65;;;;;;;23.32;37.41;100834.53;5055616;28;20426;-79
2023/07/03 10:45:12;;;;;;;7.70;2.53;;;;;;;23.98;33.74;100837.97;5055164;28;20043;-78
2023/07/03 10:47:51;;;;;;;6.10;2.65;;;;;;;24.35;32.71;100831.03;5058793;28;20103;-77
2023/07/03 10:50:17;;;;;;;9.68;2.85;;;;;;;23.72;35.01;100838.13;5068375;28;20035;-78
2023/07/03 10:53:08;;;;;;;7.82;2.45;;;;;;;23.10;35.15;100841.25;5075510;28;20395;-78
2023/07/03 10:55:39;;;;;;;9.30;2.88;;;;;;;22.28;38.25;100842.28;5072300;28;20032;-78
2023/07/03 10:58:26;;;;;;;7.97;3.17;;;;;;;20.63;41.73;100845.44;5065444;28;20124;-80
2023/07/03 11:01:03;;;;;;;8.93;3.00;;;;;;;20.04;43.06;100839.00;5089946;28;20036;-79
2023/07/03 11:03:32;;;;;;;8.48;3.10;;;;;;;19.98;44.74;100843.59;5064470;28;20055;-78
2023/07/03 11:06:05;;;;;;;11.80;3.22;;;;;;;20.17;44.26;100845.94;5067941;28;20037;-80
2023/07/03 11:08:45;;;;;;;10.18;2.90;;;;;;;20.00;44.38;100846.06;5070455;28;20033;-81
2023/07/03 11:12:15;;;;;;;8.25;2.30;;;;;;;20.19;42.40;100832.00;5091748;28;20388;-80
2023/07/03 11:14:51;;;;;;;5.70;2.30;;;;;;;20.24;42.19;100830.13;5031102;28;20064;-80
2023/07/03 11:17:25;;;;;;;6.85;2.50;;;;;;;21.17;40.80;100830.63;5037829;28;20123;-81
2023/07/03 11:20:16;;;;;;;8.88;2.83;;;;;;;22.30;38.46;100828.28;5064418;28;20040;-79
2023/07/03 11:22:50;;;;;;;9.02;2.40;;;;;;;22.82;36.98;100834.50;5073424;28;20078;-80